Hauptseite
METAR-TAF:

METAR-TAF

Flughäfen :

Sam Mbakwe Airport

Owerri, Nigeria

Breite: 5-25-35N, Länge: 7-12-20E, Höhe: 114 m

Beobachtung

Neuester Wetterbericht von vor 1 Stunde und 21 Minuten, um 05:00 UTC
Windstille
Temperatur 24°C
Luftfeuchtigkeit 94%
Luftdruck 1012 hPa
Sichtweite 10 km oder mehr
Durchbrochene Bewölkung in der Höhe von 900 ft

METAR: DNIM 250500Z 00000KT 9999 BKN009 24/23 Q1012

Zeit: 07:21 (06:21 UTC)


TAF: fehlend

Wetterbeobachtungen und Prognosen von mehr als 4000 Flughäfen (METAR und TAF Bericht).

Die verfügbaren Stationen werden durch gelbe und rote Markierungen auf der Karte dargestellt.

Führen Sie die Maus auf sie, um den Namen der Station zu sehen.

Darauf klicken, um die Beobachtung von Wetterbeobachtungen und Prognosen zu sehen.

Um die Karte zu ändern : klicken Sie auf den grünen Tasten mit einem schwarzen Kreuz Zum Vergrößern, auf den grünen Button mit einem Gedankenstrich zu verkleinern, oder auf die grünen Pfeile für benachbarte Karten.


METAR-TAF: